Time;durP1;ratioP1;P1;durP2;ratioP2;P2;SDS_P1;SDS_P2;PMS_P1;PMS_P2;Temp;Humidity;BMP_temperature;BMP_pressure;BME280_temperature;BME280_humidity;BME280_pressure;Samples;Min_cycle;Max_cycle;Signal;HPM_P1;HPM_P2
2024/03/26 00:00:13;;;;;;;9.02;4.80;;;;;;;-145.63;100.00;61273.97;5133193;28;20027;-64
2024/03/26 00:02:39;;;;;;;9.90;4.60;;;;;;;-145.63;100.00;61273.97;5133491;28;20148;-65
2024/03/26 00:05:06;;;;;;;7.22;5.00;;;;;;;-145.63;100.00;61273.97;5133208;28;20062;-65
2024/03/26 00:07:34;;;;;;;8.00;4.88;;;;;;;-145.63;100.00;61273.97;5118473;28;20024;-65
2024/03/26 00:09:59;;;;;;;9.98;5.07;;;;;;;-145.63;100.00;61273.97;5122655;28;20070;-64
2024/03/26 00:12:25;;;;;;;8.48;5.43;;;;;;;-145.63;100.00;61273.97;5133019;28;20537;-65
2024/03/26 00:14:51;;;;;;;8.85;5.05;;;;;;;-145.63;100.00;61273.97;5133512;28;20047;-65
2024/03/26 00:17:16;;;;;;;8.60;5.32;;;;;;;-145.63;100.00;61273.97;5094266;28;20399;-64
2024/03/26 00:19:42;;;;;;;8.57;4.82;;;;;;;-145.63;100.00;61273.97;5128107;28;20061;-64
2024/03/26 00:22:08;;;;;;;10.43;5.78;;;;;;;-145.63;100.00;61273.97;5122216;28;20095;-64
2024/03/26 00:24:33;;;;;;;9.43;5.43;;;;;;;-145.63;100.00;61273.97;5099998;28;20069;-65
2024/03/26 00:26:59;;;;;;;12.63;5.72;;;;;;;-145.63;100.00;61273.97;5131886;28;20039;-64
2024/03/26 00:29:24;;;;;;;10.20;5.30;;;;;;;-145.63;100.00;61273.97;5112648;28;20047;-65
2024/03/26 00:31:50;;;;;;;10.35;5.45;;;;;;;-145.63;100.00;61273.97;5111997;28;20024;-64
2024/03/26 00:34:16;;;;;;;8.40;4.88;;;;;;;-145.63;100.00;61273.97;5125198;27;20035;-65
2024/03/26 00:36:41;;;;;;;8.43;5.18;;;;;;;-145.63;100.00;61273.97;5129671;27;20357;-64
2024/03/26 00:39:08;;;;;;;10.07;5.25;;;;;;;-145.63;100.00;61273.97;5116262;28;20028;-65
2024/03/26 00:41:34;;;;;;;9.18;5.85;;;;;;;-145.63;100.00;61273.97;5115934;27;20023;-64
2024/03/26 00:44:00;;;;;;;9.43;5.05;;;;;;;-145.63;100.00;61273.97;5134131;27;20035;-65
2024/03/26 00:46:25;;;;;;;10.82;5.57;;;;;;;-145.63;100.00;61273.97;5123551;27;20023;-66
2024/03/26 00:48:51;;;;;;;9.32;5.43;;;;;;;-145.63;100.00;61273.97;5115579;28;20031;-65
2024/03/26 00:51:17;;;;;;;8.15;4.68;;;;;;;-145.63;100.00;61273.97;5119209;27;20063;-65
2024/03/26 00:53:42;;;;;;;8.60;5.45;;;;;;;-145.63;100.00;61273.97;5135876;27;20107;-65
2024/03/26 00:56:08;;;;;;;10.43;5.40;;;;;;;-145.63;100.00;61273.97;5136469;27;20047;-65
2024/03/26 00:58:33;;;;;;;7.97;4.63;;;;;;;-145.63;100.00;61273.97;5121930;27;20024;-65
2024/03/26 01:01:05;;;;;;;8.10;5.32;;;;;;;-145.63;100.00;61273.97;5134266;27;20069;-65
2024/03/26 01:03:30;;;;;;;11.07;6.07;;;;;;;-145.63;100.00;61273.97;5130854;27;20036;-65
2024/03/26 01:05:57;;;;;;;8.27;5.72;;;;;;;-145.63;100.00;61273.97;5115720;28;20050;-65
2024/03/26 01:08:23;;;;;;;6.82;5.97;;;;;;;-145.63;100.00;61273.97;5115514;28;20039;-65
2024/03/26 01:10:48;;;;;;;8.70;5.90;;;;;;;-145.63;100.00;61273.97;5131710;27;20372;-64
2024/03/26 01:13:15;;;;;;;8.02;5.32;;;;;;;-145.63;100.00;61273.97;5124724;27;20431;-65
2024/03/26 01:15:41;;;;;;;10.15;7.03;;;;;;;-145.63;100.00;61273.97;5121795;27;20444;-65
2024/03/26 01:18:07;;;;;;;8.73;6.57;;;;;;;-145.63;100.00;61273.97;5116880;27;20038;-65
2024/03/26 01:20:33;;;;;;;11.38;7.28;;;;;;;-145.63;100.00;61273.97;5135775;27;20034;-65
2024/03/26 01:22:59;;;;;;;11.07;7.03;;;;;;;-145.63;100.00;61273.97;5118174;27;20039;-64
2024/03/26 01:25:25;;;;;;;11.25;7.28;;;;;;;-145.63;100.00;61273.97;5115174;28;20054;-65
2024/03/26 01:27:52;;;;;;;14.20;7.65;;;;;;;-145.63;100.00;61273.97;5122629;27;20023;-65
2024/03/26 01:30:20;;;;;;;9.90;7.18;;;;;;;-145.63;100.00;61273.97;5132469;27;20027;-65
2024/03/26 01:32:46;;;;;;;12.02;7.38;;;;;;;-145.63;100.00;61273.97;5114928;28;20160;-66
2024/03/26 01:35:11;;;;;;;15.32;7.82;;;;;;;-145.63;100.00;61273.97;5134105;27;20449;-65
2024/03/26 01:37:37;;;;;;;11.75;7.60;;;;;;;-145.63;100.00;61273.97;5120876;27;20398;-64
2024/03/26 01:40:04;;;;;;;9.93;7.38;;;;;;;-145.63;100.00;61273.97;5115234;28;20043;-65
2024/03/26 01:42:30;;;;;;;11.55;7.80;;;;;;;-145.63;100.00;61273.97;5119891;27;20031;-64
2024/03/26 01:44:56;;;;;;;12.90;7.80;;;;;;;-145.63;100.00;61273.97;5134951;27;20034;-65
2024/03/26 01:47:22;;;;;;;10.07;6.75;;;;;;;-145.63;100.00;61273.97;5115086;28;20032;-65
2024/03/26 01:49:49;;;;;;;12.38;7.63;;;;;;;-145.63;100.00;61273.97;5129382;27;20483;-64
2024/03/26 01:52:15;;;;;;;10.38;7.45;;;;;;;-145.63;100.00;61273.97;5125907;27;20091;-66
2024/03/26 01:54:43;;;;;;;13.55;7.65;;;;;;;-145.63;100.00;61273.97;5129198;27;20038;-66
2024/03/26 01:57:10;;;;;;;10.02;7.30;;;;;;;-145.63;100.00;61273.97;5097913;27;20418;-65
2024/03/26 01:59:38;;;;;;;9.82;6.50;;;;;;;-145.63;100.00;61273.97;5134951;27;20091;-64
2024/03/26 02:02:04;;;;;;;13.90;7.20;;;;;;;-145.63;100.00;61273.97;5134953;27;20030;-65
2024/03/26 02:04:30;;;;;;;11.55;6.63;;;;;;;-145.63;100.00;61273.97;5135082;27;20019;-66
2024/03/26 02:06:55;;;;;;;11.73;6.93;;;;;;;-145.63;100.00;61273.97;5126924;27;20028;-65
2024/03/26 02:09:21;;;;;;;11.57;7.15;;;;;;;-145.63;100.00;61273.97;5114294;28;20353;-65
2024/03/26 02:11:47;;;;;;;11.82;6.70;;;;;;;-145.63;100.00;61273.97;5114020;28;20027;-64
2024/03/26 02:14:15;;;;;;;10.63;7.20;;;;;;;-145.63;100.00;61273.97;5121378;27;20023;-64
2024/03/26 02:16:41;;;;;;;11.75;6.93;;;;;;;-145.63;100.00;61273.97;5128484;27;20051;-65
2024/03/26 02:19:08;;;;;;;9.15;6.95;;;;;;;-145.63;100.00;61273.97;5124856;27;20058;-64
2024/03/26 02:21:33;;;;;;;11.88;7.15;;;;;;;-145.63;100.00;61273.97;5100317;27;20023;-64
2024/03/26 02:23:59;;;;;;;12.40;7.07;;;;;;;-145.63;100.00;61273.97;5134345;27;20372;-64
2024/03/26 02:26:25;;;;;;;14.77;7.07;;;;;;;-145.63;100.00;61273.97;5114007;28;20050;-64
2024/03/26 02:28:54;;;;;;;9.05;6.38;;;;;;;-145.63;100.00;61273.97;5129443;27;20352;-64
2024/03/26 02:31:20;;;;;;;10.00;7.10;;;;;;;-145.63;100.00;61273.97;5123007;27;20028;-65
2024/03/26 02:33:46;;;;;;;10.73;6.97;;;;;;;-145.63;100.00;61273.97;5120035;27;20042;-63
2024/03/26 02:36:11;;;;;;;11.68;7.22;;;;;;;-145.63;100.00;61273.97;5134199;27;20034;-65
2024/03/26 02:38:37;;;;;;;11.63;7.63;;;;;;;-145.63;100.00;61273.97;5134334;27;20039;-65
2024/03/26 02:41:03;;;;;;;10.90;7.07;;;;;;;-145.63;100.00;61273.97;5116933;27;20031;-65
2024/03/26 02:43:31;;;;;;;9.60;6.95;;;;;;;-145.63;100.00;61273.97;5113716;28;20051;-64
2024/03/26 02:45:57;;;;;;;10.85;7.32;;;;;;;-145.63;100.00;61273.97;5121479;27;20039;-65
2024/03/26 02:48:22;;;;;;;11.32;7.53;;;;;;;-145.63;100.00;61273.97;5131083;27;20023;-66
2024/03/26 02:50:54;;;;;;;19.80;9.23;;;;;;;-145.63;100.00;61273.97;5113316;28;20032;-64
2024/03/26 02:53:23;;;;;;;13.30;8.13;;;;;;;-145.63;100.00;61273.97;5133153;27;20020;-64
2024/03/26 02:55:49;;;;;;;13.10;7.35;;;;;;;-145.63;100.00;61273.97;5128551;27;20119;-64
2024/03/26 02:58:15;;;;;;;11.93;7.07;;;;;;;-145.63;100.00;61273.97;5122883;27;20039;-65
2024/03/26 03:00:41;;;;;;;11.15;6.72;;;;;;;-145.63;100.00;61273.97;5113183;28;20072;-65
2024/03/26 03:03:07;;;;;;;12.85;6.85;;;;;;;-145.63;100.00;61273.97;5114065;27;20039;-65
2024/03/26 03:05:33;;;;;;;10.18;6.30;;;;;;;-145.63;100.00;61273.97;5133986;27;20114;-65
2024/03/26 03:07:59;;;;;;;11.07;6.55;;;;;;;-145.63;100.00;61273.97;5117051;27;20476;-65
2024/03/26 03:10:25;;;;;;;9.93;5.90;;;;;;;-145.63;100.00;61273.97;5124961;27;20062;-64
2024/03/26 03:12:50;;;;;;;12.52;6.80;;;;;;;-145.63;100.00;61273.97;5127509;27;20027;-64
2024/03/26 03:15:16;;;;;;;10.02;6.20;;;;;;;-145.63;100.00;61273.97;5114949;28;20031;-64
2024/03/26 03:17:41;;;;;;;9.20;6.40;;;;;;;-145.63;100.00;61273.97;5133514;27;20066;-64
2024/03/26 03:20:11;;;;;;;9.82;7.22;;;;;;;-145.63;100.00;61273.97;5116244;27;20412;-64
2024/03/26 03:22:43;;;;;;;10.35;6.97;;;;;;;-145.63;100.00;61273.97;5126091;27;20031;-65
2024/03/26 03:25:09;;;;;;;9.57;6.78;;;;;;;-145.63;100.00;61273.97;5124055;27;20498;-65
2024/03/26 03:27:35;;;;;;;11.65;7.60;;;;;;;-145.63;100.00;61273.97;5117023;27;20039;-65
2024/03/26 03:30:01;;;;;;;9.20;6.35;;;;;;;-145.63;100.00;61273.97;5133691;27;20134;-65
2024/03/26 03:32:30;;;;;;;11.45;7.10;;;;;;;-145.63;100.00;61273.97;5112978;28;20466;-66
2024/03/26 03:34:56;;;;;;;9.73;6.90;;;;;;;-145.63;100.00;61273.97;5128633;27;20102;-65
2024/03/26 03:37:21;;;;;;;10.20;6.72;;;;;;;-145.63;100.00;61273.97;5133186;27;20110;-66
2024/03/26 03:39:47;;;;;;;12.13;7.20;;;;;;;-145.63;100.00;61273.97;5126529;28;20039;-65
2024/03/26 03:42:13;;;;;;;8.85;6.38;;;;;;;-145.63;100.00;61273.97;5112464;28;20031;-65
2024/03/26 03:44:38;;;;;;;11.65;6.43;;;;;;;-145.63;100.00;61273.97;5112613;28;20062;-65
2024/03/26 03:47:05;;;;;;;9.65;6.20;;;;;;;-145.63;100.00;61273.97;5129911;28;20463;-65
2024/03/26 03:49:31;;;;;;;9.10;6.38;;;;;;;-145.63;100.00;61273.97;5133206;28;20058;-65
2024/03/26 03:51:59;;;;;;;9.38;5.82;;;;;;;-145.63;100.00;61273.97;5114587;28;20024;-64
2024/03/26 03:54:25;;;;;;;9.20;5.88;;;;;;;-145.63;100.00;61273.97;5112599;28;20453;-65
2024/03/26 03:56:50;;;;;;;10.80;5.80;;;;;;;-145.63;100.00;61273.97;5112397;28;20059;-65
2024/03/26 03:59:16;;;;;;;11.60;6.53;;;;;;;-145.63;100.00;61273.97;5127158;28;20047;-64
2024/03/26 04:01:41;;;;;;;8.80;5.93;;;;;;;-145.63;100.00;61273.97;5112008;28;20035;-64
2024/03/26 04:04:07;;;;;;;8.60;6.00;;;;;;;-145.63;100.00;61273.97;5121433;28;20023;-65
2024/03/26 04:06:36;;;;;;;9.27;5.60;;;;;;;-145.63;100.00;61273.97;5132904;28;20035;-65
2024/03/26 04:09:02;;;;;;;9.15;6.03;;;;;;;-145.63;100.00;61273.97;5135683;27;20035;-65
2024/03/26 04:11:28;;;;;;;11.02;6.15;;;;;;;-145.63;100.00;61273.97;5124288;27;20031;-64
2024/03/26 04:13:53;;;;;;;9.30;5.60;;;;;;;-145.63;100.00;61273.97;5121916;27;20042;-65
2024/03/26 04:16:19;;;;;;;10.20;5.95;;;;;;;-145.63;100.00;61273.97;5108157;27;20031;-65
2024/03/26 04:18:47;;;;;;;10.45;5.97;;;;;;;-145.63;100.00;61273.97;5131599;27;20035;-65
2024/03/26 04:21:13;;;;;;;9.90;6.25;;;;;;;-145.63;100.00;61273.97;5117249;27;20024;-64
2024/03/26 04:23:38;;;;;;;11.32;6.13;;;;;;;-145.63;100.00;61273.97;5136536;27;20039;-65
2024/03/26 04:26:04;;;;;;;8.93;6.00;;;;;;;-145.63;100.00;61273.97;5137195;27;20448;-64
2024/03/26 04:28:31;;;;;;;11.05;6.53;;;;;;;-145.63;100.00;61273.97;5125164;27;20118;-64
2024/03/26 04:30:56;;;;;;;12.15;6.38;;;;;;;-145.63;100.00;61273.97;5123093;27;20502;-65
2024/03/26 04:33:22;;;;;;;12.45;6.30;;;;;;;-145.63;100.00;61273.97;5136913;27;20110;-65
2024/03/26 04:35:48;;;;;;;9.23;5.38;;;;;;;-145.63;100.00;61273.97;5136566;27;20023;-65
2024/03/26 04:38:14;;;;;;;8.13;6.13;;;;;;;-145.63;100.00;61273.97;5100648;28;20080;-65
2024/03/26 04:40:40;;;;;;;11.77;6.35;;;;;;;-145.63;100.00;61273.97;5115855;28;20482;-65
2024/03/26 04:43:07;;;;;;;11.10;6.60;;;;;;;-145.63;100.00;61273.97;5124453;27;20183;-65
2024/03/26 04:45:33;;;;;;;11.93;6.07;;;;;;;-145.63;100.00;61273.97;5132448;27;20031;-64
2024/03/26 04:48:00;;;;;;;8.18;5.57;;;;;;;-145.63;100.00;61273.97;5115790;28;20036;-65
2024/03/26 04:50:26;;;;;;;11.60;6.32;;;;;;;-145.63;100.00;61273.97;5121600;27;20122;-66
2024/03/26 04:52:52;;;;;;;11.32;5.43;;;;;;;-145.63;100.00;61273.97;5121546;27;20420;-64
2024/03/26 04:55:18;;;;;;;11.02;6.47;;;;;;;-145.63;100.00;61273.97;5113380;27;20034;-65
2024/03/26 04:57:44;;;;;;;11.95;5.95;;;;;;;-145.63;100.00;61273.97;5130983;27;20032;-65
2024/03/26 05:00:13;;;;;;;9.38;6.43;;;;;;;-145.63;100.00;61273.97;5115329;28;20039;-64
2024/03/26 05:02:40;;;;;;;7.75;5.95;;;;;;;-145.63;100.00;61273.97;5115229;28;20464;-66
2024/03/26 05:05:07;;;;;;;9.98;6.20;;;;;;;-145.63;100.00;61273.97;5132727;27;20051;-67
2024/03/26 05:07:33;;;;;;;9.52;6.47;;;;;;;-145.63;100.00;61273.97;5124129;27;20035;-65
2024/03/26 05:09:59;;;;;;;7.97;6.15;;;;;;;-145.63;100.00;61273.97;5121918;27;20050;-65
2024/03/26 05:12:26;;;;;;;11.25;6.50;;;;;;;-145.63;100.00;61273.97;5133884;27;20111;-66
2024/03/26 05:14:52;;;;;;;10.73;7.25;;;;;;;-145.63;100.00;61273.97;5097206;28;20455;-66
2024/03/26 05:17:18;;;;;;;12.00;6.68;;;;;;;-145.63;100.00;61273.97;5133369;27;20030;-65
2024/03/26 05:19:43;;;;;;;12.40;6.68;;;;;;;-145.63;100.00;61273.97;5134878;27;20032;-66
2024/03/26 05:22:09;;;;;;;10.98;6.15;;;;;;;-145.63;100.00;61273.97;5127855;27;20024;-66
2024/03/26 05:24:35;;;;;;;10.50;6.22;;;;;;;-145.63;100.00;61273.97;5118118;27;20469;-67
2024/03/26 05:27:01;;;;;;;12.70;6.20;;;;;;;-145.63;100.00;61273.97;5136324;27;20074;-66
2024/03/26 05:29:26;;;;;;;8.32;6.00;;;;;;;-145.63;100.00;61273.97;5116076;27;20035;-66
2024/03/26 05:31:52;;;;;;;11.63;5.60;;;;;;;-145.63;100.00;61273.97;5121301;27;20070;-66
2024/03/26 05:34:18;;;;;;;9.07;5.38;;;;;;;-145.63;100.00;61273.97;5124506;27;20050;-68
2024/03/26 05:36:43;;;;;;;10.65;5.70;;;;;;;-145.63;100.00;61273.97;5130780;27;20516;-67
2024/03/26 05:39:11;;;;;;;10.68;5.32;;;;;;;-145.63;100.00;61273.97;5114860;28;20088;-66
2024/03/26 05:41:39;;;;;;;10.15;5.40;;;;;;;-145.63;100.00;61273.97;5114769;28;20031;-65
2024/03/26 05:44:05;;;;;;;8.00;4.72;;;;;;;-145.63;100.00;61273.97;5130802;27;20034;-66
2024/03/26 05:46:32;;;;;;;10.93;4.55;;;;;;;-145.63;100.00;61273.97;5131867;27;20027;-67
2024/03/26 05:48:58;;;;;;;9.82;5.72;;;;;;;-145.63;100.00;61273.97;5128764;27;20075;-65
2024/03/26 05:51:23;;;;;;;10.07;4.43;;;;;;;-145.63;100.00;61273.97;5127568;27;20034;-64
2024/03/26 05:53:49;;;;;;;9.18;4.93;;;;;;;-145.63;100.00;61273.97;5114265;28;20024;-63
2024/03/26 05:56:14;;;;;;;9.68;5.32;;;;;;;-145.63;100.00;61273.97;5131702;27;20482;-65
2024/03/26 05:58:40;;;;;;;9.55;4.55;;;;;;;-145.63;100.00;61273.97;5122693;27;20042;-65
2024/03/26 06:01:06;;;;;;;7.40;4.88;;;;;;;-145.63;100.00;61273.97;5125909;27;20031;-65
2024/03/26 06:03:32;;;;;;;7.88;4.32;;;;;;;-145.63;100.00;61273.97;5131990;27;20042;-65
2024/03/26 06:05:58;;;;;;;9.50;4.70;;;;;;;-145.63;100.00;61273.97;5114521;28;20028;-66
2024/03/26 06:08:24;;;;;;;7.00;4.85;;;;;;;-145.63;100.00;61273.97;5116667;27;20058;-64
2024/03/26 06:10:50;;;;;;;11.10;4.40;;;;;;;-145.63;100.00;61273.97;5128337;27;20474;-64
2024/03/26 06:13:16;;;;;;;11.52;5.05;;;;;;;-145.63;100.00;61273.97;5127599;27;20039;-64
2024/03/26 06:15:41;;;;;;;9.02;3.90;;;;;;;-145.63;100.00;61273.97;5133499;27;20118;-65
2024/03/26 06:18:07;;;;;;;7.63;4.35;;;;;;;-145.63;100.00;61273.97;5119339;27;20054;-65
2024/03/26 06:20:33;;;;;;;10.45;4.55;;;;;;;-145.63;100.00;61273.97;5118044;27;20490;-64
2024/03/26 06:22:59;;;;;;;9.93;4.00;;;;;;;-145.63;100.00;61273.97;5124277;27;20156;-66
2024/03/26 06:25:25;;;;;;;7.97;4.35;;;;;;;-145.63;100.00;61273.97;5132898;27;20512;-65
2024/03/26 06:27:52;;;;;;;10.90;6.88;;;;;;;-145.63;100.00;61273.97;5128747;27;20453;-66
2024/03/26 06:30:18;;;;;;;6.40;4.20;;;;;;;-145.63;100.00;61273.97;5128844;27;20054;-65
2024/03/26 06:32:45;;;;;;;7.45;3.92;;;;;;;-145.63;100.00;61273.97;5128697;27;20080;-64
2024/03/26 06:35:11;;;;;;;7.78;3.88;;;;;;;-145.63;100.00;61273.97;5118314;27;20054;-64
2024/03/26 06:37:36;;;;;;;7.80;3.22;;;;;;;-145.63;100.00;61273.97;5125229;27;20034;-65
2024/03/26 06:40:03;;;;;;;5.57;2.85;;;;;;;-145.63;100.00;61273.97;5130185;27;20057;-65
2024/03/26 06:42:30;;;;;;;9.88;3.20;;;;;;;-145.63;100.00;61273.97;5115791;27;20031;-65
2024/03/26 06:44:55;;;;;;;8.30;3.53;;;;;;;-145.63;100.00;61273.97;5134550;27;20053;-65
2024/03/26 06:47:21;;;;;;;12.98;3.83;;;;;;;-145.63;100.00;61273.97;5116372;27;20028;-64
2024/03/26 06:49:47;;;;;;;8.73;2.95;;;;;;;-145.63;100.00;61273.97;5124955;27;20038;-64
2024/03/26 06:52:13;;;;;;;5.95;2.83;;;;;;;-145.63;100.00;61273.97;5128000;27;20424;-63
2024/03/26 06:54:39;;;;;;;8.60;3.05;;;;;;;-145.63;100.00;61273.97;5130404;27;20032;-64
2024/03/26 06:57:05;;;;;;;9.23;2.58;;;;;;;-145.63;100.00;61273.97;5117278;27;20232;-65
2024/03/26 06:59:32;;;;;;;7.35;2.65;;;;;;;-145.63;100.00;61273.97;5125972;27;20024;-64
2024/03/26 07:02:03;;;;;;;5.35;2.83;;;;;;;-145.63;100.00;61273.97;5113352;28;20040;-64
2024/03/26 07:04:33;;;;;;;3.40;2.70;;;;;;;-145.63;100.00;61273.97;5123329;27;20031;-66
2024/03/26 07:06:59;;;;;;;13.30;3.38;;;;;;;-145.63;100.00;61273.97;5127588;27;20032;-66
2024/03/26 07:09:24;;;;;;;8.88;4.75;;;;;;;-145.63;100.00;61273.97;5113711;27;20023;-65
2024/03/26 07:11:50;;;;;;;11.55;3.10;;;;;;;-145.63;100.00;61273.97;5133276;27;20038;-67
2024/03/26 07:14:19;;;;;;;4.13;2.22;;;;;;;-145.63;100.00;61273.97;5116845;27;20107;-66
2024/03/26 07:16:46;;;;;;;6.10;2.60;;;;;;;-145.63;100.00;61273.97;5125067;27;20027;-65
2024/03/26 07:19:12;;;;;;;4.43;2.40;;;;;;;-145.63;100.00;61273.97;5126199;27;20122;-65
2024/03/26 07:21:39;;;;;;;4.82;2.63;;;;;;;-145.63;100.00;61273.97;5113063;28;20076;-65
2024/03/26 07:24:06;;;;;;;4.32;1.95;;;;;;;-145.63;100.00;61273.97;5112499;28;20495;-66
2024/03/26 07:26:32;;;;;;;6.68;2.42;;;;;;;-145.63;100.00;61273.97;5131520;27;20035;-66
2024/03/26 07:28:57;;;;;;;4.95;2.55;;;;;;;-145.63;100.00;61273.97;5119245;27;20035;-65
2024/03/26 07:31:23;;;;;;;4.18;2.03;;;;;;;-145.63;100.00;61273.97;5121608;27;20102;-66
2024/03/26 07:33:49;;;;;;;5.82;2.30;;;;;;;-145.63;100.00;61273.97;5132920;27;20031;-65
2024/03/26 07:36:15;;;;;;;5.40;2.33;;;;;;;-145.63;100.00;61273.97;5134055;27;20110;-65
2024/03/26 07:38:42;;;;;;;4.07;2.38;;;;;;;-145.63;100.00;61273.97;5113308;28;20115;-66
2024/03/26 07:41:07;;;;;;;4.82;2.58;;;;;;;-145.63;100.00;61273.97;5112845;28;20023;-65
2024/03/26 07:43:33;;;;;;;6.38;2.30;;;;;;;-145.63;100.00;61273.97;5108588;28;20393;-65
2024/03/26 07:45:59;;;;;;;5.68;2.20;;;;;;;-145.63;100.00;61273.97;5127726;28;20028;-65
2024/03/26 07:48:25;;;;;;;7.07;3.22;;;;;;;-145.63;100.00;61273.97;5122192;28;20076;-65
2024/03/26 07:50:50;;;;;;;5.03;2.10;;;;;;;-145.63;100.00;61273.97;5132761;27;20079;-66
2024/03/26 07:53:16;;;;;;;6.57;2.25;;;;;;;-145.63;100.00;61273.97;5135698;27;20031;-65
2024/03/26 07:55:42;;;;;;;6.32;2.35;;;;;;;-145.63;100.00;61273.97;5106790;28;20035;-65
2024/03/26 07:58:08;;;;;;;5.43;2.38;;;;;;;-145.63;100.00;61273.97;5112300;28;20377;-65
2024/03/26 08:00:33;;;;;;;8.02;2.10;;;;;;;-145.63;100.00;61273.97;5108635;28;20023;-66
2024/03/26 08:02:59;;;;;;;5.68;2.38;;;;;;;-145.63;100.00;61273.97;5120825;28;20032;-64
2024/03/26 08:05:25;;;;;;;5.97;2.00;;;;;;;-145.63;100.00;61273.97;5129394;28;20110;-66
2024/03/26 08:07:51;;;;;;;3.33;2.22;;;;;;;-145.63;100.00;61273.97;5131835;28;20494;-66
2024/03/26 08:10:19;;;;;;;3.20;2.17;;;;;;;-145.63;100.00;61273.97;5127707;28;20023;-65
2024/03/26 08:12:45;;;;;;;4.35;2.22;;;;;;;-145.63;100.00;61273.97;5103218;28;20046;-65
2024/03/26 08:15:11;;;;;;;5.97;2.22;;;;;;;-145.63;100.00;61273.97;5131671;28;20074;-63
2024/03/26 08:17:38;;;;;;;3.95;2.13;;;;;;;-145.63;100.00;61273.97;5114088;28;20031;-65
2024/03/26 08:20:05;;;;;;;7.30;2.47;;;;;;;-145.63;100.00;61273.97;5132287;28;20055;-65
2024/03/26 08:22:32;;;;;;;5.63;2.85;;;;;;;-145.63;100.00;61273.97;5128471;28;20508;-65
2024/03/26 08:24:57;;;;;;;3.22;2.08;;;;;;;-145.63;100.00;61273.97;5117936;28;20088;-66
2024/03/26 08:27:23;;;;;;;8.85;2.60;;;;;;;-145.63;100.00;61273.97;5133045;28;20047;-65
2024/03/26 08:29:51;;;;;;;4.55;2.20;;;;;;;-145.63;100.00;61273.97;5131756;28;20039;-64
2024/03/26 08:32:16;;;;;;;4.45;2.28;;;;;;;-145.63;100.00;61273.97;5131576;28;20027;-64
2024/03/26 08:34:42;;;;;;;4.20;2.50;;;;;;;-145.63;100.00;61273.97;5124206;28;20041;-64
2024/03/26 08:37:07;;;;;;;4.50;2.80;;;;;;;-145.63;100.00;61273.97;5126651;28;20107;-64
2024/03/26 08:39:33;;;;;;;4.28;2.53;;;;;;;-145.63;100.00;61273.97;5113417;28;20028;-65
2024/03/26 08:41:59;;;;;;;5.68;2.40;;;;;;;-145.63;100.00;61273.97;5125022;28;20046;-64
2024/03/26 08:44:25;;;;;;;6.72;2.53;;;;;;;-145.63;100.00;61273.97;5116277;28;20039;-65
2024/03/26 08:46:50;;;;;;;3.90;2.35;;;;;;;-145.63;100.00;61273.97;5114870;28;20050;-65
2024/03/26 08:49:16;;;;;;;6.57;3.00;;;;;;;-145.63;100.00;61273.97;5122305;28;20049;-67
2024/03/26 08:51:41;;;;;;;7.53;2.95;;;;;;;-145.63;100.00;61273.97;5119054;28;20059;-66
2024/03/26 08:54:07;;;;;;;5.20;2.38;;;;;;;-145.63;100.00;61273.97;5112040;28;20064;-65
2024/03/26 08:56:33;;;;;;;5.93;3.00;;;;;;;-145.63;100.00;61273.97;5132089;27;20320;-65
2024/03/26 08:58:59;;;;;;;5.90;2.50;;;;;;;-145.63;100.00;61273.97;5135940;27;20495;-66
2024/03/26 09:01:25;;;;;;;3.10;2.42;;;;;;;-145.63;100.00;61273.97;5136042;27;20130;-66
2024/03/26 09:03:50;;;;;;;4.65;2.72;;;;;;;-145.63;100.00;61273.97;5136183;27;20023;-65
2024/03/26 09:06:16;;;;;;;5.38;2.90;;;;;;;-145.63;100.00;61273.97;5135899;27;20038;-65
2024/03/26 09:08:42;;;;;;;10.10;3.38;;;;;;;-145.63;100.00;61273.97;5124676;27;20102;-65
2024/03/26 09:11:08;;;;;;;8.40;2.72;;;;;;;-145.63;100.00;61273.97;5134184;27;20031;-64
2024/03/26 09:13:40;;;;;;;7.75;2.92;;;;;;;-145.63;100.00;61273.97;5126210;27;20028;-66
2024/03/26 09:16:07;;;;;;;7.00;3.10;;;;;;;-145.63;100.00;61273.97;5120464;27;20072;-64
2024/03/26 09:18:33;;;;;;;5.45;2.92;;;;;;;-145.63;100.00;61273.97;5135354;27;20035;-66
2024/03/26 09:20:59;;;;;;;10.18;3.10;;;;;;;-145.63;100.00;61273.97;5115291;28;20020;-64
2024/03/26 09:23:24;;;;;;;7.03;3.35;;;;;;;-145.63;100.00;61273.97;5116643;27;20053;-65
2024/03/26 09:25:50;;;;;;;7.15;2.63;;;;;;;-145.63;100.00;61273.97;5114833;28;20054;-63
2024/03/26 09:28:16;;;;;;;7.30;2.63;;;;;;;-145.63;100.00;61273.97;5103492;27;20396;-66
2024/03/26 09:30:42;;;;;;;5.45;2.63;;;;;;;-145.63;100.00;61273.97;5128430;27;20035;-67
2024/03/26 09:33:08;;;;;;;4.35;2.60;;;;;;;-145.63;100.00;61273.97;5135277;27;20073;-66
2024/03/26 09:35:34;;;;;;;7.80;2.90;;;;;;;-145.63;100.00;61273.97;5135150;27;20459;-66
2024/03/26 09:38:00;;;;;;;4.80;2.60;;;;;;;-145.63;100.00;61273.97;5121580;27;20053;-65
2024/03/26 09:40:26;;;;;;;6.35;2.60;;;;;;;-145.63;100.00;61273.97;5123382;27;20058;-64
2024/03/26 09:42:52;;;;;;;5.55;2.20;;;;;;;-145.63;100.00;61273.97;5134149;27;20106;-65
2024/03/26 09:45:19;;;;;;;6.50;2.17;;;;;;;-145.63;100.00;61273.97;5125749;27;20033;-64
2024/03/26 09:47:50;;;;;;;2.90;2.05;;;;;;;-145.63;100.00;61273.97;5131597;27;20099;-66
2024/03/26 09:50:19;;;;;;;5.20;2.47;;;;;;;-145.63;100.00;61273.97;5125326;27;20031;-66
2024/03/26 09:52:48;;;;;;;7.78;2.42;;;;;;;-145.63;100.00;61273.97;5127741;27;20027;-66
2024/03/26 09:55:16;;;;;;;4.60;2.20;;;;;;;-145.63;100.00;61273.97;5127368;27;20426;-65
2024/03/26 09:57:42;;;;;;;5.00;1.90;;;;;;;-145.63;100.00;61273.97;5096695;27;20597;-67
2024/03/26 10:00:08;;;;;;;4.55;2.30;;;;;;;-145.63;100.00;61273.97;5131197;27;20126;-66
2024/03/26 10:02:34;;;;;;;5.30;2.35;;;;;;;-145.63;100.00;61273.97;5119015;27;20028;-64
2024/03/26 10:05:01;;;;;;;5.30;2.03;;;;;;;-145.63;100.00;61273.97;5127087;27;20038;-66
2024/03/26 10:07:27;;;;;;;5.38;2.30;;;;;;;-145.63;100.00;61273.97;5122285;27;20467;-65
2024/03/26 10:09:53;;;;;;;4.65;2.03;;;;;;;-145.63;100.00;61273.97;5133528;27;20416;-65
2024/03/26 10:12:19;;;;;;;7.22;2.40;;;;;;;-145.63;100.00;61273.97;5134777;27;20083;-64
2024/03/26 10:14:44;;;;;;;3.22;1.92;;;;;;;-145.63;100.00;61273.97;5126543;27;20470;-65
2024/03/26 10:17:10;;;;;;;3.63;2.08;;;;;;;-145.63;100.00;61273.97;5120500;27;20039;-65
2024/03/26 10:19:35;;;;;;;2.88;2.03;;;;;;;-145.63;100.00;61273.97;5113449;28;20471;-65
2024/03/26 10:22:01;;;;;;;4.95;2.20;;;;;;;-145.63;100.00;61273.97;5118375;27;20034;-65
2024/03/26 10:24:27;;;;;;;5.75;2.53;;;;;;;-145.63;100.00;61273.97;5133999;27;20570;-65
2024/03/26 10:26:53;;;;;;;3.72;2.70;;;;;;;-145.63;100.00;61273.97;5129633;27;20039;-65
2024/03/26 10:29:19;;;;;;;4.82;2.63;;;;;;;-145.63;100.00;61273.97;5118211;27;20062;-66
2024/03/26 10:31:48;;;;;;;6.43;2.80;;;;;;;-145.63;100.00;61273.97;5124158;27;20435;-65
2024/03/26 10:34:16;;;;;;;3.75;2.47;;;;;;;-145.63;100.00;61273.97;5127408;27;20028;-66
2024/03/26 10:36:42;;;;;;;5.38;2.70;;;;;;;-145.63;100.00;61273.97;5132830;27;20359;-66
2024/03/26 10:39:11;;;;;;;8.00;2.67;;;;;;;-145.63;100.00;61273.97;5134410;27;20039;-67
2024/03/26 10:41:40;;;;;;;5.35;2.70;;;;;;;-145.63;100.00;61273.97;5116563;27;20028;-65
2024/03/26 10:44:06;;;;;;;5.55;2.55;;;;;;;-145.63;100.00;61273.97;5127186;27;20075;-65
2024/03/26 10:46:33;;;;;;;3.55;2.08;;;;;;;-145.63;100.00;61273.97;5130062;27;20027;-66
2024/03/26 10:49:01;;;;;;;6.32;2.53;;;;;;;-145.63;100.00;61273.97;5117033;27;20435;-66
2024/03/26 10:51:28;;;;;;;5.55;2.55;;;;;;;-145.63;100.00;61273.97;5133531;27;20064;-65
2024/03/26 10:53:59;;;;;;;4.38;2.33;;;;;;;-145.63;100.00;61273.97;5113528;27;20054;-66
2024/03/26 10:56:26;;;;;;;7.88;2.47;;;;;;;-145.63;100.00;61273.97;5113361;27;20035;-64
2024/03/26 10:58:57;;;;;;;3.60;2.65;;;;;;;-145.63;100.00;61273.97;5123251;27;20027;-64
2024/03/26 11:01:25;;;;;;;4.57;2.60;;;;;;;-145.63;100.00;61273.97;5134112;27;20035;-63